Decoded Metar for KRDR (RED RIVER in ND, USA) (IATA:RDR) | Meteo·Mobile Aviation Weather
aviador You're here:

KRDR Decoded Metar

RED RIVER in ND, USA
Report Time2018-12-14 15:56:00
UTC Time2018-12-14 16:41:19
Flight Rules vfr VFR
Wind300° at 06 kt
W.Decomp.*RWY 35: 3.4 kt HW 5 kt LCW
W.Rank300° ranks 11
Current wind is below 300° avg. (8.5)
Visibility9999 m
Phenomena:N/A
Clouds:Scattered 250 Hf
Expected CloudBase > 2,400 ft AGL from Temp-Dew spread
CeilingNone
Temp02°C (ISA -11)
Dew Point-4°C (65% RH)
AAT-2.6°C
QNH1017 hPa
Density Alt-515 ft
Elevation912 ft
Report Wrong Elevation
Raw Report
KRDR 141556Z 30006KT 10SM SCT250 02/M04 A3004 RMK AO2A SLP188
T00151040 $=

Extra information for KRDR:More info

Metar Taf Metar & Taf Last 4 Metars F.Rules Stats Wind Profile Meteogram Temp Stats Airport Information Weather charts Add Link Nearby VenuesMetar ALERT Operation Metar Decoded Social comments

AIRNAV info for KRDR